createdAt,value
2018-07-27T00:01:59.386Z,19.70
2018-07-27T00:04:27.943Z,19.70
2018-07-27T00:06:56.522Z,19.70
2018-07-27T00:09:25.042Z,19.70
2018-07-27T00:11:53.556Z,19.70
2018-07-27T00:14:22.031Z,19.70
2018-07-27T00:16:50.630Z,19.70
2018-07-27T00:19:19.118Z,19.70
2018-07-27T00:21:47.630Z,19.70
2018-07-27T00:24:16.146Z,19.70
2018-07-27T00:26:44.622Z,19.60
2018-07-27T00:29:13.173Z,19.60
2018-07-27T00:31:41.721Z,19.60
2018-07-27T00:34:10.242Z,19.60
2018-07-27T00:36:38.814Z,19.50
2018-07-27T00:39:08.555Z,19.50
2018-07-27T00:41:37.074Z,19.50
2018-07-27T00:44:05.659Z,19.50
2018-07-27T00:46:34.239Z,19.40
2018-07-27T00:49:02.713Z,19.40
2018-07-27T00:51:31.322Z,19.40
2018-07-27T00:53:59.828Z,19.40
2018-07-27T00:58:56.715Z,19.40
2018-07-27T01:01:25.287Z,19.40
2018-07-27T01:03:53.842Z,19.30
2018-07-27T01:06:22.381Z,19.40
2018-07-27T01:08:50.914Z,19.30
2018-07-27T01:11:19.434Z,19.30
2018-07-27T01:13:47.970Z,19.30
2018-07-27T01:16:16.442Z,19.30
2018-07-27T01:18:44.960Z,19.20
2018-07-27T01:21:13.498Z,19.20
2018-07-27T01:23:42.030Z,19.20
2018-07-27T01:26:10.603Z,19.20
2018-07-27T01:28:39.088Z,19.20
2018-07-27T01:31:07.646Z,19.20
2018-07-27T01:33:36.282Z,19.20
2018-07-27T01:36:04.823Z,19.20
2018-07-27T01:38:33.315Z,19.10
2018-07-27T01:41:02.394Z,19.10
2018-07-27T01:43:30.996Z,19.10
2018-07-27T01:45:59.584Z,19.10
2018-07-27T01:48:28.062Z,19.10
2018-07-27T01:50:56.619Z,19.10
2018-07-27T01:53:25.106Z,19.10
2018-07-27T01:55:53.761Z,19.10
2018-07-27T01:58:22.262Z,19.10
2018-07-27T02:00:50.783Z,19.10
2018-07-27T02:03:19.295Z,19.10
2018-07-27T02:05:47.797Z,19.10
2018-07-27T02:08:16.330Z,19.20
2018-07-27T02:10:44.856Z,19.20
2018-07-27T02:13:13.503Z,19.10
2018-07-27T02:15:42.029Z,19.10
2018-07-27T02:18:10.575Z,19.10
2018-07-27T02:20:39.141Z,19.00
2018-07-27T02:23:07.641Z,19.00
2018-07-27T02:25:36.159Z,19.00
2018-07-27T02:28:04.698Z,19.00
2018-07-27T02:30:33.245Z,18.90
2018-07-27T02:33:02.714Z,19.00
2018-07-27T02:35:31.242Z,19.00
2018-07-27T02:37:59.742Z,19.00
2018-07-27T02:40:28.226Z,19.00
2018-07-27T02:42:56.763Z,19.00
2018-07-27T02:45:25.262Z,19.00
2018-07-27T02:47:53.777Z,19.00
2018-07-27T02:50:22.289Z,19.00
2018-07-27T02:52:50.802Z,19.00
2018-07-27T02:55:19.307Z,19.00
2018-07-27T02:57:47.818Z,19.00
2018-07-27T03:00:16.370Z,19.00
2018-07-27T03:02:44.878Z,19.00
2018-07-27T03:05:13.371Z,19.00
2018-07-27T03:07:41.866Z,19.00
2018-07-27T03:10:10.390Z,19.00
2018-07-27T03:12:38.885Z,19.10
2018-07-27T03:15:07.763Z,19.10
2018-07-27T03:17:36.264Z,19.10
2018-07-27T03:20:05.251Z,19.10
2018-07-27T03:22:33.842Z,19.10
2018-07-27T03:27:30.628Z,19.00
2018-07-27T03:29:59.130Z,19.00
2018-07-27T03:32:28.006Z,19.00
2018-07-27T03:34:56.502Z,19.00
2018-07-27T03:37:25.090Z,19.00
2018-07-27T03:39:53.657Z,19.00
2018-07-27T03:42:22.154Z,19.00
2018-07-27T03:44:50.677Z,19.00
2018-07-27T03:47:19.182Z,19.00
2018-07-27T03:49:47.795Z,19.10
2018-07-27T03:52:16.306Z,19.00
2018-07-27T03:54:44.790Z,19.10
2018-07-27T03:57:13.302Z,19.10
2018-07-27T03:59:41.810Z,19.10
2018-07-27T04:02:10.645Z,19.10
2018-07-27T04:04:39.168Z,19.10
2018-07-27T04:07:07.653Z,19.20
2018-07-27T04:09:36.148Z,19.20
2018-07-27T04:14:32.866Z,19.20
2018-07-27T04:17:01.403Z,19.20
2018-07-27T04:19:29.938Z,19.20
2018-07-27T04:21:58.443Z,19.20
2018-07-27T04:24:26.949Z,19.30
2018-07-27T04:26:55.493Z,19.20
2018-07-27T04:29:23.977Z,19.30
2018-07-27T04:31:52.512Z,19.40
2018-07-27T04:34:21.022Z,19.40
2018-07-27T04:36:49.526Z,19.40
2018-07-27T04:39:18.063Z,19.40
2018-07-27T04:41:46.558Z,19.50
2018-07-27T04:44:15.122Z,19.50
2018-07-27T04:46:43.689Z,19.50
2018-07-27T04:49:12.206Z,19.60
2018-07-27T04:51:40.759Z,19.60
2018-07-27T04:54:09.275Z,19.70
2018-07-27T04:56:37.820Z,19.70
2018-07-27T04:59:06.290Z,19.70
2018-07-27T05:01:34.759Z,19.80
2018-07-27T05:04:03.286Z,19.90
2018-07-27T05:06:31.871Z,19.90
2018-07-27T05:09:05.601Z,19.90
2018-07-27T05:11:34.135Z,20.00
2018-07-27T05:14:02.659Z,20.00
2018-07-27T05:16:31.168Z,20.10
2018-07-27T05:18:59.658Z,20.10
2018-07-27T05:21:28.144Z,20.10
2018-07-27T05:23:56.617Z,20.20
2018-07-27T05:26:25.182Z,20.20
2018-07-27T05:28:53.703Z,20.20
2018-07-27T05:31:22.183Z,20.20
2018-07-27T05:33:50.703Z,20.30
2018-07-27T05:36:19.199Z,20.30
2018-07-27T05:38:47.718Z,20.40
2018-07-27T05:41:16.250Z,20.40
2018-07-27T05:43:44.751Z,20.50
2018-07-27T05:46:13.382Z,20.50
2018-07-27T05:48:41.887Z,20.50
2018-07-27T05:51:10.518Z,20.50
2018-07-27T05:53:39.018Z,20.60
2018-07-27T05:56:07.638Z,20.70
2018-07-27T05:58:36.232Z,20.70
2018-07-27T06:01:04.778Z,20.80
2018-07-27T06:03:33.331Z,20.90
2018-07-27T06:06:02.045Z,21.00
2018-07-27T06:08:30.555Z,21.10
2018-07-27T06:10:59.114Z,21.20
2018-07-27T06:13:27.643Z,21.40
2018-07-27T06:15:56.183Z,21.50
2018-07-27T06:18:24.715Z,21.60
2018-07-27T06:20:53.570Z,21.70
2018-07-27T06:23:22.083Z,21.80
2018-07-27T06:25:50.618Z,21.90
2018-07-27T06:28:19.438Z,22.10
2018-07-27T06:30:48.141Z,22.20
2018-07-27T06:33:17.511Z,22.30
2018-07-27T06:35:46.027Z,22.40
2018-07-27T06:38:14.499Z,22.50
2018-07-27T06:40:43.035Z,22.60
2018-07-27T06:43:11.530Z,22.60
2018-07-27T06:45:40.074Z,22.70
2018-07-27T06:48:12.787Z,22.80
2018-07-27T06:50:41.418Z,22.90
2018-07-27T06:53:10.042Z,23.10
2018-07-27T06:55:38.646Z,23.20
2018-07-27T06:58:07.154Z,23.50
2018-07-27T07:00:35.738Z,23.90
2018-07-27T07:03:04.508Z,24.20
2018-07-27T07:05:33.029Z,24.50
2018-07-27T07:08:01.535Z,25.10
2018-07-27T07:10:30.099Z,25.50
2018-07-27T07:12:58.635Z,25.40
2018-07-27T07:15:27.160Z,25.90
2018-07-27T07:17:55.703Z,25.80
2018-07-27T07:20:24.362Z,26.20
2018-07-27T07:22:53.030Z,26.20
2018-07-27T07:25:21.624Z,26.50
2018-07-27T07:27:50.342Z,26.70
2018-07-27T07:30:18.958Z,26.80
2018-07-27T07:32:47.510Z,26.70
2018-07-27T07:35:16.019Z,26.50
2018-07-27T07:37:44.643Z,26.70
2018-07-27T07:40:13.151Z,26.70
2018-07-27T07:42:41.630Z,26.50
2018-07-27T07:45:10.243Z,26.30
2018-07-27T07:47:38.741Z,26.20
2018-07-27T07:50:07.530Z,26.10
2018-07-27T07:52:36.034Z,26.10
2018-07-27T07:55:04.575Z,26.10
2018-07-27T07:57:33.059Z,26.40
2018-07-27T08:00:01.617Z,26.60
2018-07-27T08:02:30.116Z,26.90
2018-07-27T08:04:58.634Z,27.30
2018-07-27T08:07:27.183Z,27.60
2018-07-27T08:09:55.682Z,27.80
2018-07-27T08:14:52.726Z,28.10
2018-07-27T08:17:21.480Z,28.20
2018-07-27T08:19:49.931Z,27.90
2018-07-27T08:22:18.414Z,27.80
2018-07-27T08:24:47.151Z,28.00
2018-07-27T08:27:15.659Z,28.10
2018-07-27T08:29:45.223Z,28.20
2018-07-27T08:32:14.123Z,28.50
2018-07-27T08:34:42.849Z,28.20
2018-07-27T08:37:11.394Z,28.10
2018-07-27T08:39:41.831Z,27.90
2018-07-27T08:42:10.359Z,28.30
2018-07-27T08:44:40.209Z,28.60
2018-07-27T08:47:08.962Z,28.80
2018-07-27T08:49:38.242Z,28.70
2018-07-27T08:52:06.753Z,28.70
2018-07-27T08:54:35.342Z,28.70
2018-07-27T08:57:04.027Z,28.80
2018-07-27T08:59:32.579Z,29.20
2018-07-27T09:02:01.097Z,29.20
2018-07-27T09:04:29.661Z,29.10
2018-07-27T09:06:58.190Z,29.00
2018-07-27T09:09:26.726Z,28.90
2018-07-27T09:11:55.258Z,28.60
2018-07-27T09:14:23.788Z,28.70
2018-07-27T09:16:52.371Z,28.90
2018-07-27T09:19:20.902Z,28.90
2018-07-27T09:21:49.410Z,29.40
2018-07-27T09:24:17.936Z,28.90
2018-07-27T09:26:46.591Z,29.10
2018-07-27T09:29:15.086Z,29.30
2018-07-27T09:31:43.610Z,29.30
2018-07-27T09:34:12.205Z,29.40
2018-07-27T09:36:40.694Z,29.30
2018-07-27T09:39:10.709Z,29.40
2018-07-27T09:41:39.277Z,29.70
2018-07-27T09:44:08.142Z,29.70
2018-07-27T09:46:36.671Z,30.00
2018-07-27T09:49:05.296Z,30.10
2018-07-27T09:51:33.826Z,30.30
2018-07-27T09:54:02.351Z,30.20
2018-07-27T09:56:30.942Z,30.30
2018-07-27T09:58:59.426Z,30.20
2018-07-27T10:01:29.006Z,30.20
2018-07-27T10:03:57.522Z,30.40
2018-07-27T10:06:26.047Z,30.30
2018-07-27T10:08:54.594Z,30.60
2018-07-27T10:11:24.126Z,30.80
2018-07-27T10:13:52.638Z,30.90
2018-07-27T10:16:21.114Z,30.90
2018-07-27T10:18:49.651Z,30.80
2018-07-27T10:23:46.330Z,30.60
2018-07-27T10:26:14.916Z,30.70
2018-07-27T10:28:43.405Z,30.80
2018-07-27T10:31:11.977Z,31.00
2018-07-27T10:33:40.452Z,31.40
2018-07-27T10:36:08.930Z,31.50
2018-07-27T10:38:37.571Z,31.40
2018-07-27T10:41:06.106Z,31.70
2018-07-27T10:43:34.606Z,32.00
2018-07-27T10:46:03.153Z,31.70
2018-07-27T10:48:31.633Z,31.70
2018-07-27T10:51:00.122Z,31.50
2018-07-27T10:53:28.642Z,31.30
2018-07-27T10:55:57.228Z,30.90
2018-07-27T10:58:25.762Z,30.50
2018-07-27T11:03:22.412Z,29.30
2018-07-27T11:05:51.013Z,29.00
2018-07-27T11:08:19.508Z,28.80
2018-07-27T11:10:48.023Z,28.60
2018-07-27T11:13:16.518Z,28.80
2018-07-27T11:15:45.050Z,29.00
2018-07-27T11:18:13.543Z,29.40
2018-07-27T11:20:42.038Z,29.30
2018-07-27T11:23:10.575Z,29.40
2018-07-27T11:25:39.076Z,29.40
2018-07-27T11:28:07.610Z,29.60
2018-07-27T11:30:36.149Z,29.60
2018-07-27T11:33:04.754Z,29.60
2018-07-27T11:35:33.362Z,29.90
2018-07-27T11:38:01.907Z,29.80
2018-07-27T11:40:30.402Z,30.20
2018-07-27T11:42:58.942Z,30.20
2018-07-27T11:45:27.494Z,30.10
2018-07-27T11:47:55.970Z,30.40
2018-07-27T11:50:24.470Z,30.60
2018-07-27T11:52:53.002Z,30.90
2018-07-27T11:55:21.513Z,30.60
2018-07-27T11:57:49.977Z,30.80
2018-07-27T12:00:18.522Z,30.90
2018-07-27T12:02:47.053Z,31.20
2018-07-27T12:05:15.603Z,31.20
2018-07-27T12:07:44.108Z,31.50
2018-07-27T12:10:12.576Z,31.50
2018-07-27T12:12:41.111Z,31.60
2018-07-27T12:15:09.770Z,31.70
2018-07-27T12:17:38.135Z,31.70
2018-07-27T12:20:06.658Z,31.60
2018-07-27T12:22:35.152Z,31.40
2018-07-27T12:25:03.630Z,31.30
2018-07-27T12:27:32.174Z,31.20
2018-07-27T12:30:00.655Z,31.40
2018-07-27T12:32:29.178Z,31.80
2018-07-27T12:34:57.634Z,31.70
2018-07-27T12:37:26.182Z,31.90
2018-07-27T12:39:54.690Z,31.90
2018-07-27T12:42:23.194Z,31.70
2018-07-27T12:44:51.723Z,31.70
2018-07-27T12:47:20.246Z,31.80
2018-07-27T12:49:48.886Z,31.80
2018-07-27T12:52:17.574Z,32.10
2018-07-27T12:54:46.074Z,31.80
2018-07-27T12:57:14.586Z,31.90
2018-07-27T12:59:43.055Z,31.90
2018-07-27T13:02:11.594Z,32.10
2018-07-27T13:04:40.144Z,32.10
2018-07-27T13:07:08.654Z,31.90
2018-07-27T13:09:37.146Z,31.50
2018-07-27T13:12:05.674Z,31.70
2018-07-27T13:17:02.670Z,31.70
2018-07-27T13:19:31.221Z,31.40
2018-07-27T13:21:59.823Z,31.10
2018-07-27T13:26:56.813Z,30.80
2018-07-27T13:29:25.331Z,30.90
2018-07-27T13:31:55.100Z,31.20
2018-07-27T13:34:46.590Z,31.30
2018-07-27T13:37:15.637Z,31.50
2018-07-27T13:39:44.983Z,31.60
2018-07-27T13:42:14.739Z,31.60
2018-07-27T13:44:43.588Z,31.70
2018-07-27T13:47:12.602Z,31.50
2018-07-27T13:49:41.162Z,31.50
2018-07-27T13:52:09.690Z,31.50
2018-07-27T13:54:38.337Z,31.70
2018-07-27T13:57:06.866Z,31.60
2018-07-27T13:59:35.957Z,31.50
2018-07-27T14:02:04.906Z,31.30
2018-07-27T14:04:33.481Z,30.80
2018-07-27T14:07:03.198Z,30.50
2018-07-27T14:09:31.753Z,30.50
2018-07-27T14:12:00.323Z,30.50
2018-07-27T14:14:28.908Z,30.40
2018-07-27T14:16:57.540Z,30.40
2018-07-27T14:19:26.854Z,30.00
2018-07-27T14:21:55.399Z,30.30
2018-07-27T14:24:23.918Z,30.30
2018-07-27T14:26:52.945Z,30.50
2018-07-27T14:29:21.627Z,30.20
2018-07-27T14:31:50.089Z,30.30
2018-07-27T14:34:18.620Z,30.30
2018-07-27T14:36:47.255Z,30.30
2018-07-27T14:39:16.382Z,30.50
2018-07-27T14:41:45.123Z,30.50
2018-07-27T14:44:13.662Z,30.80
2018-07-27T14:46:42.162Z,30.80
2018-07-27T14:49:12.223Z,30.90
2018-07-27T14:51:41.378Z,31.00
2018-07-27T14:54:11.100Z,30.80
2018-07-27T14:56:40.231Z,30.80
2018-07-27T14:59:09.449Z,30.80
2018-07-27T15:01:38.399Z,30.80
2018-07-27T15:04:07.308Z,30.80
2018-07-27T15:06:35.873Z,30.80
2018-07-27T15:11:35.059Z,30.60
2018-07-27T15:14:03.683Z,30.30
2018-07-27T15:16:32.219Z,30.40
2018-07-27T15:21:29.062Z,30.30
2018-07-27T15:23:57.662Z,30.30
2018-07-27T15:28:54.526Z,30.10
2018-07-27T15:31:23.091Z,30.20
2018-07-27T15:33:51.630Z,30.10
2018-07-27T15:36:20.263Z,30.00
2018-07-27T15:38:48.779Z,29.90
2018-07-27T15:41:17.294Z,29.90
2018-07-27T15:43:45.828Z,29.90
2018-07-27T15:46:14.439Z,29.90
2018-07-27T15:48:42.986Z,29.90
2018-07-27T15:51:11.542Z,29.70
2018-07-27T15:53:40.050Z,29.70
2018-07-27T15:56:08.543Z,29.60
2018-07-27T15:58:37.034Z,29.60
2018-07-27T16:01:05.542Z,29.50
2018-07-27T16:03:34.071Z,29.60
2018-07-27T16:06:02.545Z,29.50
2018-07-27T16:08:31.030Z,29.40
2018-07-27T16:10:59.602Z,29.50
2018-07-27T16:13:28.237Z,29.50
2018-07-27T16:15:56.822Z,29.50
2018-07-27T16:18:25.335Z,29.40
2018-07-27T16:20:53.818Z,29.30
2018-07-27T16:23:22.317Z,29.20
2018-07-27T16:25:50.875Z,29.20
2018-07-27T16:28:19.382Z,29.10
2018-07-27T16:30:47.938Z,29.20
2018-07-27T16:33:16.438Z,29.00
2018-07-27T16:35:44.898Z,29.10
2018-07-27T16:38:13.454Z,29.00
2018-07-27T16:40:42.058Z,29.10
2018-07-27T16:45:38.806Z,29.10
2018-07-27T16:48:07.286Z,29.10
2018-07-27T16:50:35.763Z,29.00
2018-07-27T16:53:04.312Z,28.90
2018-07-27T16:55:32.891Z,28.80
2018-07-27T16:58:01.418Z,28.90
2018-07-27T17:00:29.909Z,28.80
2018-07-27T17:02:58.512Z,28.70
2018-07-27T17:05:27.021Z,28.70
2018-07-27T17:07:55.502Z,28.70
2018-07-27T17:10:24.038Z,28.60
2018-07-27T17:12:52.519Z,28.60
2018-07-27T17:15:21.038Z,28.60
2018-07-27T17:17:49.550Z,28.60
2018-07-27T17:20:18.073Z,28.50
2018-07-27T17:22:46.612Z,28.50
2018-07-27T17:25:15.182Z,28.40
2018-07-27T17:27:43.652Z,28.30
2018-07-27T17:30:12.178Z,28.40
2018-07-27T17:32:40.707Z,28.30
2018-07-27T17:35:09.259Z,28.20
2018-07-27T17:37:37.808Z,28.20
2018-07-27T17:40:07.312Z,28.20
2018-07-27T17:42:35.927Z,28.10
2018-07-27T17:45:04.766Z,28.00
2018-07-27T17:47:33.234Z,28.00
2018-07-27T17:50:01.835Z,27.90
2018-07-27T17:52:30.382Z,28.00
2018-07-27T17:54:59.003Z,27.90
2018-07-27T17:57:27.530Z,27.80
2018-07-27T17:59:56.067Z,27.80
2018-07-27T18:02:24.581Z,27.80
2018-07-27T18:04:53.157Z,27.80
2018-07-27T18:07:21.770Z,27.60
2018-07-27T18:09:50.315Z,27.50
2018-07-27T18:12:18.836Z,27.50
2018-07-27T18:14:47.355Z,27.40
2018-07-27T18:17:15.876Z,27.30
2018-07-27T18:19:44.368Z,27.40
2018-07-27T18:22:12.989Z,27.30
2018-07-27T18:27:09.745Z,27.30
2018-07-27T18:32:06.870Z,27.20
2018-07-27T18:34:35.395Z,27.10
2018-07-27T18:37:04.016Z,27.00
2018-07-27T18:39:32.752Z,26.80
2018-07-27T18:42:01.253Z,26.70
2018-07-27T18:46:58.031Z,26.70
2018-07-27T18:49:26.529Z,26.50
2018-07-27T18:51:55.913Z,26.50
2018-07-27T18:54:24.435Z,26.40
2018-07-27T18:56:53.156Z,26.30
2018-07-27T18:59:21.701Z,26.20
2018-07-27T19:01:50.321Z,26.10
2018-07-27T19:04:18.861Z,26.00
2018-07-27T19:06:47.454Z,26.00
2018-07-27T19:09:15.960Z,25.90
2018-07-27T19:11:44.495Z,25.80
2018-07-27T19:16:41.219Z,25.70
2018-07-27T19:19:09.746Z,25.60
2018-07-27T19:21:38.228Z,25.60
2018-07-27T19:24:06.853Z,25.50
2018-07-27T19:26:35.418Z,25.40
2018-07-27T19:29:03.987Z,25.40
2018-07-27T19:31:32.723Z,25.30
2018-07-27T19:34:01.305Z,25.30
2018-07-27T19:36:29.846Z,25.30
2018-07-27T19:38:58.365Z,25.20
2018-07-27T19:41:26.886Z,25.10
2018-07-27T19:43:55.476Z,25.00
2018-07-27T19:46:24.098Z,24.90
2018-07-27T19:48:52.689Z,24.80
2018-07-27T19:51:21.186Z,24.80
2018-07-27T19:53:49.670Z,24.70
2018-07-27T19:56:18.202Z,24.70
2018-07-27T19:58:46.670Z,24.60
2018-07-27T20:01:15.165Z,24.60
2018-07-27T20:03:43.707Z,24.50
2018-07-27T20:06:12.261Z,24.40
2018-07-27T20:08:40.840Z,24.30
2018-07-27T20:11:09.441Z,24.20
2018-07-27T20:13:38.133Z,24.20
2018-07-27T20:16:06.644Z,24.10
2018-07-27T20:18:35.238Z,24.10
2018-07-27T20:21:03.806Z,24.00
2018-07-27T20:23:32.470Z,23.90
2018-07-27T20:26:01.062Z,23.80
2018-07-27T20:28:29.589Z,23.80
2018-07-27T20:30:58.094Z,23.80
2018-07-27T20:33:26.622Z,23.80
2018-07-27T20:35:55.200Z,23.70
2018-07-27T20:38:23.872Z,23.70
2018-07-27T20:40:52.435Z,23.60
2018-07-27T20:43:20.978Z,23.60
2018-07-27T20:45:49.494Z,23.60
2018-07-27T20:48:18.104Z,23.60
2018-07-27T20:50:46.626Z,23.50
2018-07-27T20:53:16.068Z,23.50
2018-07-27T20:55:44.588Z,23.50
2018-07-27T20:58:13.142Z,23.50
2018-07-27T21:00:41.686Z,23.40
2018-07-27T21:03:10.162Z,23.30
2018-07-27T21:05:38.691Z,23.40
2018-07-27T21:08:07.254Z,23.30
2018-07-27T21:10:35.828Z,23.30
2018-07-27T21:13:04.366Z,23.30
2018-07-27T21:15:32.957Z,23.30
2018-07-27T21:18:01.453Z,23.30
2018-07-27T21:20:29.990Z,23.30
2018-07-27T21:22:58.550Z,23.20
2018-07-27T21:25:27.035Z,23.20
2018-07-27T21:27:55.574Z,23.20
2018-07-27T21:30:24.254Z,23.10
2018-07-27T21:32:52.811Z,23.00
2018-07-27T21:35:21.420Z,23.00
2018-07-27T21:37:50.055Z,23.00
2018-07-27T21:40:18.521Z,23.00
2018-07-27T21:42:47.022Z,23.00
2018-07-27T21:45:15.562Z,23.00
2018-07-27T21:47:44.062Z,23.00
2018-07-27T21:50:12.603Z,23.00
2018-07-27T21:52:41.144Z,23.00
2018-07-27T21:55:09.726Z,22.90
2018-07-27T21:57:38.543Z,22.90
2018-07-27T22:00:09.291Z,22.90
2018-07-27T22:02:37.826Z,22.90
2018-07-27T22:07:36.419Z,22.80
2018-07-27T22:10:05.494Z,22.80
2018-07-27T22:12:33.981Z,22.80
2018-07-27T22:15:02.615Z,22.70
2018-07-27T22:17:31.197Z,22.70
2018-07-27T22:19:59.709Z,22.70
2018-07-27T22:22:28.229Z,22.70
2018-07-27T22:27:24.984Z,22.60
2018-07-27T22:29:53.486Z,22.60
2018-07-27T22:32:22.063Z,22.50
2018-07-27T22:34:50.518Z,22.40
2018-07-27T22:37:19.158Z,22.40
2018-07-27T22:39:47.691Z,22.40
2018-07-27T22:42:16.199Z,22.40
2018-07-27T22:44:44.822Z,22.40
2018-07-27T22:47:13.288Z,22.30
2018-07-27T22:49:41.859Z,22.30
2018-07-27T22:52:10.437Z,22.30
2018-07-27T22:54:38.963Z,22.20
2018-07-27T22:57:07.509Z,22.20
2018-07-27T22:59:36.111Z,22.20
2018-07-27T23:02:04.625Z,22.20
2018-07-27T23:04:33.122Z,22.20
2018-07-27T23:07:01.606Z,22.20
2018-07-27T23:09:30.106Z,22.20
2018-07-27T23:11:58.622Z,22.10
2018-07-27T23:14:27.118Z,22.10
2018-07-27T23:16:55.623Z,22.00
2018-07-27T23:19:24.139Z,22.00
2018-07-27T23:21:52.695Z,22.00
2018-07-27T23:24:21.223Z,21.90
2018-07-27T23:26:49.907Z,21.90
2018-07-27T23:29:19.074Z,21.90
2018-07-27T23:31:47.565Z,21.90
2018-07-27T23:34:16.134Z,21.90
2018-07-27T23:36:44.681Z,21.80
2018-07-27T23:39:14.181Z,21.80
2018-07-27T23:41:43.249Z,21.80
2018-07-27T23:44:11.806Z,21.70
2018-07-27T23:46:40.270Z,21.70
2018-07-27T23:49:08.830Z,21.70
2018-07-27T23:51:37.366Z,21.70
2018-07-27T23:54:05.858Z,21.70
2018-07-27T23:56:34.446Z,21.60
2018-07-27T23:59:02.977Z,21.60
